createdAt,value
2022-12-18T00:00:42.594Z,9.77
2022-12-18T00:03:11.826Z,8.97
2022-12-18T00:05:49.042Z,7.23
2022-12-18T00:08:20.139Z,7.40
2022-12-18T00:10:48.895Z,7.37
2022-12-18T00:13:17.458Z,6.70
2022-12-18T00:15:45.973Z,6.50
2022-12-18T00:18:18.990Z,6.83
2022-12-18T00:20:49.350Z,6.23
2022-12-18T00:23:19.924Z,6.67
2022-12-18T00:25:59.465Z,6.60
2022-12-18T00:28:28.632Z,5.97
2022-12-18T00:31:02.683Z,5.90
2022-12-18T00:33:32.100Z,7.03
2022-12-18T00:36:05.802Z,6.33
2022-12-18T00:38:35.949Z,5.87
2022-12-18T00:41:05.666Z,5.67
2022-12-18T00:43:35.693Z,6.17
2022-12-18T00:46:06.899Z,7.00
2022-12-18T00:48:35.583Z,5.60
2022-12-18T00:51:03.604Z,3.70
2022-12-18T00:53:37.999Z,4.97
2022-12-18T00:56:08.368Z,4.73
2022-12-18T00:58:39.402Z,5.63
2022-12-18T01:01:16.447Z,6.10
2022-12-18T01:03:46.655Z,5.37
2022-12-18T01:06:16.791Z,6.50
2022-12-18T01:08:46.670Z,8.53
2022-12-18T01:11:20.992Z,7.90
2022-12-18T01:13:50.304Z,7.57
2022-12-18T01:16:19.340Z,8.33
2022-12-18T01:18:48.627Z,8.70
2022-12-18T01:21:18.886Z,8.57
2022-12-18T01:23:47.343Z,8.20
2022-12-18T01:26:19.861Z,8.30
2022-12-18T01:28:48.604Z,7.30
2022-12-18T01:31:19.940Z,7.20
2022-12-18T01:33:52.227Z,6.70
2022-12-18T01:36:23.493Z,6.70
2022-12-18T01:38:52.964Z,5.03
2022-12-18T01:41:24.233Z,7.07
2022-12-18T01:44:03.252Z,6.40
2022-12-18T01:46:31.898Z,5.43
2022-12-18T01:49:03.503Z,5.83
2022-12-18T01:51:37.023Z,5.97
2022-12-18T01:54:08.902Z,5.47
2022-12-18T01:56:39.825Z,5.67
2022-12-18T01:59:14.754Z,4.90
2022-12-18T02:01:43.025Z,5.63
2022-12-18T02:04:23.247Z,5.57
2022-12-18T02:07:04.722Z,5.43
2022-12-18T02:09:40.179Z,5.03
2022-12-18T02:12:18.788Z,4.93
2022-12-18T02:14:51.476Z,6.20
2022-12-18T02:17:22.227Z,5.67
2022-12-18T02:20:12.302Z,5.07
2022-12-18T02:22:46.734Z,6.30
2022-12-18T02:25:28.737Z,5.60
2022-12-18T02:28:09.356Z,5.20
2022-12-18T02:30:42.233Z,5.37
2022-12-18T02:33:13.024Z,6.23
2022-12-18T02:35:43.093Z,5.50
2022-12-18T02:38:12.688Z,5.13
2022-12-18T02:40:44.721Z,3.70
2022-12-18T02:43:18.373Z,3.40
2022-12-18T02:45:54.491Z,3.00
2022-12-18T02:48:29.704Z,3.43
2022-12-18T02:51:06.121Z,2.60
2022-12-18T02:53:47.286Z,2.33
2022-12-18T02:56:21.873Z,2.40
2022-12-18T02:59:01.125Z,2.33
2022-12-18T03:02:00.469Z,2.70
2022-12-18T03:04:33.438Z,2.27
2022-12-18T03:07:10.355Z,2.43
2022-12-18T03:09:41.365Z,2.10
2022-12-18T03:12:26.561Z,2.20
2022-12-18T03:15:05.377Z,2.83
2022-12-18T03:17:36.046Z,1.83
2022-12-18T03:20:10.780Z,2.40
2022-12-18T03:22:40.928Z,2.10
2022-12-18T03:25:18.207Z,2.73
2022-12-18T03:27:51.763Z,2.00
2022-12-18T03:30:23.336Z,3.00
2022-12-18T03:33:00.370Z,2.40
2022-12-18T03:35:34.437Z,2.47
2022-12-18T03:38:03.491Z,2.73
2022-12-18T03:40:37.552Z,2.80
2022-12-18T03:43:12.611Z,3.53
2022-12-18T03:45:50.579Z,2.73
2022-12-18T03:48:25.069Z,2.53
2022-12-18T03:50:59.554Z,2.33
2022-12-18T03:53:37.524Z,3.00
2022-12-18T03:56:07.006Z,3.73
2022-12-18T03:58:42.516Z,3.20
2022-12-18T04:04:23.734Z,3.23
2022-12-18T04:06:53.762Z,2.53
2022-12-18T04:09:25.460Z,2.27
2022-12-18T04:11:55.105Z,2.93
2022-12-18T04:14:23.294Z,2.20
2022-12-18T04:17:05.724Z,2.53
2022-12-18T04:19:35.141Z,3.10
2022-12-18T04:22:09.968Z,3.03
2022-12-18T04:24:44.434Z,2.80
2022-12-18T04:27:21.078Z,2.70
2022-12-18T04:29:51.482Z,3.40
2022-12-18T04:32:24.851Z,3.07
2022-12-18T04:34:55.772Z,2.90
2022-12-18T04:37:24.985Z,3.30
2022-12-18T04:39:55.211Z,2.17
2022-12-18T04:42:31.687Z,2.90
2022-12-18T04:44:59.766Z,3.10
2022-12-18T04:47:29.471Z,2.87
2022-12-18T04:49:58.453Z,1.90
2022-12-18T04:52:26.511Z,1.50
2022-12-18T04:54:55.550Z,1.60
2022-12-18T04:57:24.007Z,1.77
2022-12-18T04:59:52.501Z,1.80
2022-12-18T05:02:22.486Z,1.50
2022-12-18T05:04:52.657Z,1.87
2022-12-18T05:07:22.925Z,1.83
2022-12-18T05:09:51.545Z,1.67
2022-12-18T05:12:19.697Z,2.43
2022-12-18T05:14:53.959Z,2.13
2022-12-18T05:17:24.154Z,2.20
2022-12-18T05:19:57.489Z,2.13
2022-12-18T05:22:26.797Z,2.90
2022-12-18T05:24:55.964Z,2.30
2022-12-18T05:27:26.174Z,2.00
2022-12-18T05:29:54.598Z,2.60
2022-12-18T05:32:23.004Z,2.13
2022-12-18T05:34:52.732Z,2.37
2022-12-18T05:37:22.302Z,2.63
2022-12-18T05:39:50.689Z,3.00
2022-12-18T05:42:18.775Z,2.70
2022-12-18T05:44:47.182Z,2.73
2022-12-18T05:47:15.870Z,2.70
2022-12-18T05:49:47.416Z,2.23
2022-12-18T05:52:17.041Z,3.20
2022-12-18T05:54:45.113Z,2.77
2022-12-18T05:57:13.579Z,2.20
2022-12-18T05:59:44.063Z,2.20
2022-12-18T06:02:13.156Z,2.47
2022-12-18T06:04:41.209Z,2.20
2022-12-18T06:07:10.012Z,2.27
2022-12-18T06:09:39.364Z,2.37
2022-12-18T06:12:08.160Z,2.27
2022-12-18T06:14:36.174Z,3.30
2022-12-18T06:17:12.302Z,2.70
2022-12-18T06:19:40.746Z,1.93
2022-12-18T06:22:09.142Z,2.00
2022-12-18T06:24:37.173Z,2.33
2022-12-18T06:27:06.512Z,2.47
2022-12-18T06:29:38.374Z,2.70
2022-12-18T06:32:06.805Z,3.37
2022-12-18T06:34:36.207Z,3.23
2022-12-18T06:37:04.245Z,2.70
2022-12-18T06:39:32.446Z,2.13
2022-12-18T06:42:01.040Z,2.27
2022-12-18T06:44:30.413Z,2.93
2022-12-18T06:46:59.026Z,2.83
2022-12-18T06:49:30.618Z,2.40
2022-12-18T06:52:01.299Z,2.70
2022-12-18T06:54:30.408Z,2.40
2022-12-18T06:56:58.449Z,3.20
2022-12-18T06:59:29.499Z,3.27
2022-12-18T07:01:59.576Z,3.40
2022-12-18T07:04:30.294Z,2.23
2022-12-18T07:06:59.233Z,2.43
2022-12-18T07:09:29.719Z,2.90
2022-12-18T07:12:00.442Z,2.27
2022-12-18T07:14:28.899Z,2.57
2022-12-18T07:17:00.240Z,1.90
2022-12-18T07:19:28.443Z,2.73
2022-12-18T07:21:57.663Z,2.33
2022-12-18T07:24:26.544Z,2.00
2022-12-18T07:26:54.667Z,2.70
2022-12-18T07:29:23.259Z,2.47
2022-12-18T07:31:53.630Z,2.27
2022-12-18T07:34:23.242Z,3.67
2022-12-18T07:36:52.112Z,2.20
2022-12-18T07:39:20.170Z,2.03
2022-12-18T07:42:10.280Z,2.87
2022-12-18T07:44:41.652Z,2.50
2022-12-18T07:47:16.239Z,2.20
2022-12-18T07:49:45.620Z,2.40
2022-12-18T07:52:14.270Z,2.40
2022-12-18T07:54:42.835Z,3.47
2022-12-18T07:57:27.387Z,2.13
2022-12-18T07:59:59.759Z,2.00
2022-12-18T08:02:36.080Z,3.13
2022-12-18T08:05:09.355Z,2.40
2022-12-18T08:07:37.393Z,2.13
2022-12-18T08:10:08.749Z,2.60
2022-12-18T08:12:37.933Z,2.77
2022-12-18T08:15:06.658Z,2.87
2022-12-18T08:17:34.909Z,3.10
2022-12-18T08:20:05.540Z,3.07
2022-12-18T08:22:38.164Z,3.10
2022-12-18T08:25:08.150Z,2.60
2022-12-18T08:27:36.864Z,2.70
2022-12-18T08:30:06.722Z,2.63
2022-12-18T08:32:36.178Z,2.43
2022-12-18T08:35:11.692Z,3.00
2022-12-18T08:37:48.042Z,2.60
2022-12-18T08:40:16.773Z,2.47
2022-12-18T08:43:03.569Z,2.30
2022-12-18T08:45:35.347Z,2.80
2022-12-18T08:48:03.826Z,2.50
2022-12-18T08:50:33.197Z,2.83
2022-12-18T08:53:02.139Z,2.13
2022-12-18T08:55:32.110Z,2.50
2022-12-18T08:58:00.454Z,2.40
2022-12-18T09:00:28.429Z,2.20
2022-12-18T09:02:59.420Z,2.93
2022-12-18T09:05:27.974Z,2.60
2022-12-18T09:07:57.840Z,2.30
2022-12-18T09:10:26.457Z,2.10
2022-12-18T09:12:54.606Z,1.90
2022-12-18T09:15:24.090Z,2.30
2022-12-18T09:17:53.748Z,2.40
2022-12-18T09:20:22.165Z,2.17
2022-12-18T09:22:50.868Z,2.70
2022-12-18T09:25:22.550Z,2.17
2022-12-18T09:27:52.590Z,2.17
2022-12-18T09:30:22.553Z,2.53
2022-12-18T09:32:51.521Z,2.07
2022-12-18T09:35:19.566Z,1.90
2022-12-18T09:37:47.694Z,2.43
2022-12-18T09:40:18.152Z,2.47
2022-12-18T09:42:53.331Z,1.90
2022-12-18T09:45:29.314Z,2.33
2022-12-18T09:47:58.534Z,2.47
2022-12-18T09:50:31.841Z,2.10
2022-12-18T09:53:05.728Z,2.63
2022-12-18T09:55:41.820Z,2.40
2022-12-18T09:58:18.961Z,2.37
2022-12-18T10:00:47.978Z,2.70
2022-12-18T10:03:17.460Z,2.30
2022-12-18T10:05:54.917Z,2.23
2022-12-18T10:08:33.309Z,2.20
2022-12-18T10:11:17.475Z,2.03
2022-12-18T10:13:54.159Z,2.27
2022-12-18T10:16:36.732Z,2.23
2022-12-18T10:19:20.192Z,2.10
2022-12-18T10:21:59.849Z,2.65
2022-12-18T10:24:35.658Z,2.23
2022-12-18T10:27:16.342Z,2.27
2022-12-18T10:29:46.957Z,2.30
2022-12-18T10:32:29.607Z,2.47
2022-12-18T10:35:01.016Z,2.30
2022-12-18T10:37:32.394Z,1.60
2022-12-18T10:40:21.464Z,1.90
2022-12-18T10:43:06.564Z,2.07
2022-12-18T10:45:43.312Z,1.70
2022-12-18T10:48:21.971Z,2.60
2022-12-18T10:51:13.842Z,2.10
2022-12-18T10:53:58.307Z,2.60
2022-12-18T10:56:28.014Z,2.23
2022-12-18T10:59:05.777Z,2.20
2022-12-18T11:01:49.418Z,2.07
2022-12-18T11:04:23.243Z,2.43
2022-12-18T11:06:57.207Z,2.10
2022-12-18T11:09:28.087Z,2.30
2022-12-18T11:12:00.880Z,2.40
2022-12-18T11:14:31.845Z,1.77
2022-12-18T11:19:58.911Z,1.90
2022-12-18T11:22:31.817Z,1.90
2022-12-18T11:25:30.877Z,2.50
2022-12-18T11:27:57.557Z,2.17
2022-12-18T11:30:27.832Z,2.60
2022-12-18T11:33:05.910Z,1.40
2022-12-18T11:35:55.218Z,1.83
2022-12-18T11:38:28.900Z,1.77
2022-12-18T11:41:03.416Z,2.40
2022-12-18T11:43:36.702Z,1.90
2022-12-18T11:46:16.106Z,2.20
2022-12-18T11:48:59.789Z,2.10
2022-12-18T11:51:31.975Z,3.10
2022-12-18T11:54:01.463Z,3.00
2022-12-18T11:56:35.035Z,2.73
2022-12-18T11:59:14.838Z,2.90
2022-12-18T12:01:53.069Z,3.17
2022-12-18T12:04:50.066Z,2.97
2022-12-18T12:07:28.020Z,2.37
2022-12-18T12:10:06.826Z,2.60
2022-12-18T12:12:50.580Z,2.60
2022-12-18T12:15:36.734Z,2.63
2022-12-18T12:18:18.548Z,1.80
2022-12-18T12:20:55.543Z,2.40
2022-12-18T12:23:35.346Z,3.07
2022-12-18T12:26:08.585Z,2.00
2022-12-18T12:29:02.502Z,2.50
2022-12-18T12:31:59.793Z,2.60
2022-12-18T12:34:36.860Z,2.37
2022-12-18T12:37:24.985Z,2.40
2022-12-18T12:39:56.835Z,2.20
2022-12-18T12:42:50.526Z,2.37
2022-12-18T12:45:26.499Z,2.30
2022-12-18T12:47:56.465Z,2.60
2022-12-18T12:50:26.813Z,2.70
2022-12-18T12:53:00.964Z,3.00
2022-12-18T12:55:31.198Z,2.87
2022-12-18T12:58:07.658Z,2.57
2022-12-18T13:00:44.017Z,2.37
2022-12-18T13:03:22.823Z,2.80
2022-12-18T13:05:57.681Z,3.50
2022-12-18T13:08:31.088Z,2.70
2022-12-18T13:11:56.194Z,2.93
2022-12-18T13:14:34.599Z,3.70
2022-12-18T13:17:32.562Z,2.50
2022-12-18T13:20:13.035Z,3.70
2022-12-18T13:22:46.919Z,2.80
2022-12-18T13:25:40.860Z,3.70
2022-12-18T13:28:13.059Z,2.77
2022-12-18T13:30:52.708Z,3.30
2022-12-18T13:34:02.051Z,3.30
2022-12-18T13:36:33.447Z,3.00
2022-12-18T13:39:32.742Z,4.10
2022-12-18T13:42:58.141Z,3.73
2022-12-18T13:45:48.007Z,3.90
2022-12-18T13:48:21.697Z,4.70
2022-12-18T13:50:57.797Z,4.37
2022-12-18T13:53:30.021Z,4.33
2022-12-18T13:56:01.971Z,4.80
2022-12-18T13:58:31.555Z,5.20
2022-12-18T14:01:02.871Z,4.87
2022-12-18T14:03:32.316Z,4.80
2022-12-18T14:06:10.324Z,5.10
2022-12-18T14:08:42.300Z,4.70
2022-12-18T14:11:22.256Z,5.13
2022-12-18T14:13:55.379Z,4.50
2022-12-18T14:16:25.168Z,4.93
2022-12-18T14:19:00.982Z,6.10
2022-12-18T14:21:49.444Z,6.73
2022-12-18T14:24:19.965Z,6.63
2022-12-18T14:26:50.623Z,5.07
2022-12-18T14:29:35.454Z,4.87
2022-12-18T14:32:18.328Z,5.17
2022-12-18T14:34:48.720Z,5.50
2022-12-18T14:37:19.097Z,5.07
2022-12-18T14:39:56.074Z,5.17
2022-12-18T14:42:29.441Z,5.27
2022-12-18T14:45:43.141Z,5.80
2022-12-18T14:48:23.248Z,5.50
2022-12-18T14:51:01.961Z,4.70
2022-12-18T14:53:48.955Z,5.60
2022-12-18T14:56:24.165Z,6.70
2022-12-18T14:58:56.355Z,5.73
2022-12-18T15:01:29.170Z,5.57
2022-12-18T15:04:00.248Z,6.30
2022-12-18T15:06:35.003Z,5.47
2022-12-18T15:09:06.388Z,5.50
2022-12-18T15:11:37.706Z,5.80
2022-12-18T15:14:26.619Z,5.97
2022-12-18T15:16:59.945Z,7.23
2022-12-18T15:19:36.248Z,6.40
2022-12-18T15:22:06.721Z,7.50
2022-12-18T15:24:35.244Z,6.40
2022-12-18T15:27:07.118Z,7.47
2022-12-18T15:29:35.389Z,7.57
2022-12-18T15:32:07.300Z,6.33
2022-12-18T15:34:35.860Z,6.80
2022-12-18T15:37:07.052Z,9.50
2022-12-18T15:39:36.698Z,8.70
2022-12-18T15:42:23.026Z,6.90
2022-12-18T15:44:51.311Z,7.33
2022-12-18T15:47:21.141Z,7.13
2022-12-18T15:49:49.889Z,6.50
2022-12-18T15:52:26.855Z,6.90
2022-12-18T15:55:12.917Z,8.27
2022-12-18T15:57:41.045Z,8.47
2022-12-18T16:00:17.618Z,7.73
2022-12-18T16:02:47.382Z,7.23
2022-12-18T16:05:17.855Z,6.43
2022-12-18T16:07:46.184Z,7.10
2022-12-18T16:10:17.730Z,7.87
2022-12-18T16:12:46.211Z,6.77
2022-12-18T16:15:22.434Z,8.10
2022-12-18T16:17:54.728Z,6.33
2022-12-18T16:20:24.452Z,8.40
2022-12-18T16:22:54.576Z,7.43
2022-12-18T16:25:26.698Z,8.67
2022-12-18T16:27:57.018Z,8.73
2022-12-18T16:30:28.527Z,9.03
2022-12-18T16:33:02.185Z,8.10
2022-12-18T16:35:30.202Z,8.70
2022-12-18T16:37:58.204Z,8.93
2022-12-18T16:40:28.801Z,10.13
2022-12-18T16:42:57.626Z,8.17
2022-12-18T16:45:33.897Z,8.80
2022-12-18T16:48:03.320Z,8.90
2022-12-18T16:50:31.730Z,7.80
2022-12-18T16:53:00.315Z,9.37
2022-12-18T16:55:28.321Z,9.40
2022-12-18T16:57:56.374Z,9.07
2022-12-18T17:00:24.727Z,8.70
2022-12-18T17:02:53.083Z,9.77
2022-12-18T17:05:22.603Z,12.27
2022-12-18T17:07:50.725Z,11.73
2022-12-18T17:10:18.750Z,8.50
2022-12-18T17:12:47.208Z,9.00
2022-12-18T17:15:15.257Z,10.40
2022-12-18T17:17:44.517Z,9.37
2022-12-18T17:20:13.338Z,10.57
2022-12-18T17:22:43.220Z,10.30
2022-12-18T17:25:11.414Z,9.73
2022-12-18T17:27:42.245Z,10.87
2022-12-18T17:30:12.394Z,9.20
2022-12-18T17:32:40.575Z,10.83
2022-12-18T17:35:09.589Z,10.87
2022-12-18T17:37:38.461Z,10.97
2022-12-18T17:40:09.426Z,10.70
2022-12-18T17:42:40.767Z,11.27
2022-12-18T17:45:09.966Z,10.40
2022-12-18T17:47:38.318Z,10.97
2022-12-18T17:50:07.473Z,12.60
2022-12-18T17:52:36.320Z,11.70
2022-12-18T17:55:04.609Z,12.03
2022-12-18T17:57:33.990Z,12.90
2022-12-18T18:00:02.076Z,12.60
2022-12-18T18:02:38.050Z,11.60
2022-12-18T18:07:51.029Z,10.60
2022-12-18T18:10:20.627Z,11.47
2022-12-18T18:13:09.462Z,11.20
2022-12-18T18:15:39.829Z,10.57
2022-12-18T18:18:10.754Z,11.77
2022-12-18T18:20:41.561Z,12.20
2022-12-18T18:23:10.888Z,11.40
2022-12-18T18:25:41.147Z,11.70
2022-12-18T18:28:11.517Z,12.03
2022-12-18T18:30:39.779Z,11.30
2022-12-18T18:33:12.083Z,12.00
2022-12-18T18:35:53.687Z,11.43
2022-12-18T18:38:23.040Z,11.53
2022-12-18T18:41:03.777Z,11.50
2022-12-18T18:43:33.617Z,11.40
2022-12-18T18:46:04.517Z,12.00
2022-12-18T18:48:35.635Z,12.90
2022-12-18T18:51:08.490Z,10.07
2022-12-18T18:53:41.432Z,12.63
2022-12-18T18:57:03.856Z,12.73
2022-12-18T18:59:12.497Z,11.87
2022-12-18T19:01:41.165Z,12.30
2022-12-18T19:04:11.890Z,13.27
2022-12-18T19:06:44.319Z,11.97
2022-12-18T19:09:14.011Z,13.63
2022-12-18T19:12:00.022Z,13.40
2022-12-18T19:14:30.192Z,11.83
2022-12-18T19:16:58.742Z,13.00
2022-12-18T19:19:28.502Z,12.13
2022-12-18T19:21:59.718Z,12.07
2022-12-18T19:24:29.093Z,11.53
2022-12-18T19:26:59.476Z,12.30
2022-12-18T19:29:28.014Z,11.40
2022-12-18T19:31:59.809Z,11.60
2022-12-18T19:34:28.215Z,12.43
2022-12-18T19:36:59.786Z,11.70
2022-12-18T19:39:29.669Z,11.40
2022-12-18T19:41:59.430Z,13.37
2022-12-18T19:44:30.077Z,12.90
2022-12-18T19:47:03.864Z,12.47
2022-12-18T19:49:33.205Z,11.50
2022-12-18T19:52:04.424Z,12.00
2022-12-18T19:54:36.981Z,13.27
2022-12-18T19:57:07.618Z,12.53
2022-12-18T19:59:36.837Z,11.27
2022-12-18T20:02:14.279Z,12.70
2022-12-18T20:04:50.068Z,10.90
2022-12-18T20:07:18.470Z,13.87
2022-12-18T20:09:53.851Z,11.50
2022-12-18T20:12:35.450Z,11.40
2022-12-18T20:15:04.122Z,12.10
2022-12-18T20:17:33.503Z,12.63
2022-12-18T20:20:05.195Z,12.80
2022-12-18T20:22:34.782Z,12.30
2022-12-18T20:25:03.310Z,12.30
2022-12-18T20:27:31.691Z,13.43
2022-12-18T20:29:59.703Z,13.27
2022-12-18T20:32:31.495Z,13.53
2022-12-18T20:35:06.659Z,12.23
2022-12-18T20:37:35.698Z,11.07
2022-12-18T20:40:08.841Z,12.27
2022-12-18T20:42:36.818Z,11.37
2022-12-18T20:45:05.676Z,11.13
2022-12-18T20:47:35.680Z,12.37
2022-12-18T20:50:06.764Z,13.17
2022-12-18T20:52:35.485Z,12.97
2022-12-18T20:55:06.333Z,10.87
2022-12-18T20:57:35.404Z,10.60
2022-12-18T21:00:08.939Z,12.80
2022-12-18T21:02:39.298Z,11.13
2022-12-18T21:05:09.810Z,11.53
2022-12-18T21:07:38.295Z,12.83
2022-12-18T21:10:08.053Z,11.90
2022-12-18T21:12:45.229Z,12.70
2022-12-18T21:15:25.326Z,12.40
2022-12-18T21:17:57.198Z,11.20
2022-12-18T21:20:30.297Z,12.20
2022-12-18T21:23:02.828Z,12.20
2022-12-18T21:25:43.957Z,11.43
2022-12-18T21:28:13.601Z,11.07
2022-12-18T21:30:42.267Z,11.73
2022-12-18T21:33:10.358Z,12.00
2022-12-18T21:35:40.155Z,12.10
2022-12-18T21:38:08.787Z,11.43
2022-12-18T21:40:36.793Z,11.50
2022-12-18T21:43:23.654Z,11.43
2022-12-18T21:45:59.340Z,12.67
2022-12-18T21:48:29.431Z,12.83
2022-12-18T21:50:58.750Z,11.10
2022-12-18T21:53:26.866Z,13.83
2022-12-18T21:56:00.905Z,11.90
2022-12-18T21:58:36.476Z,11.33
2022-12-18T22:01:05.190Z,10.63
2022-12-18T22:03:35.408Z,11.70
2022-12-18T22:06:09.392Z,12.40
2022-12-18T22:08:43.044Z,10.40
2022-12-18T22:11:13.573Z,11.83
2022-12-18T22:13:42.110Z,11.43
2022-12-18T22:16:12.888Z,11.93
2022-12-18T22:18:44.215Z,11.30
2022-12-18T22:21:28.991Z,11.03
2022-12-18T22:24:07.327Z,10.57
2022-12-18T22:26:49.503Z,11.20
2022-12-18T22:29:37.855Z,12.10
2022-12-18T22:32:07.694Z,11.70
2022-12-18T22:34:39.183Z,11.73
2022-12-18T22:37:08.559Z,12.23
2022-12-18T22:39:36.979Z,11.53
2022-12-18T22:42:08.387Z,12.23
2022-12-18T22:44:36.470Z,12.67
2022-12-18T22:47:06.195Z,11.53
2022-12-18T22:49:40.219Z,12.43
2022-12-18T22:52:12.868Z,12.30
2022-12-18T22:54:43.914Z,10.67
2022-12-18T22:57:11.904Z,11.40
2022-12-18T22:59:40.344Z,11.27
2022-12-18T23:02:13.319Z,12.90
2022-12-18T23:04:41.649Z,12.80
2022-12-18T23:07:11.646Z,12.90
2022-12-18T23:09:40.936Z,12.93
2022-12-18T23:12:15.082Z,12.77
2022-12-18T23:14:50.244Z,13.60
2022-12-18T23:17:20.717Z,11.97
2022-12-18T23:19:50.328Z,12.23
2022-12-18T23:22:21.833Z,10.93
2022-12-18T23:24:50.868Z,11.60
2022-12-18T23:27:18.831Z,12.50
2022-12-18T23:29:52.195Z,12.97
2022-12-18T23:32:21.852Z,12.07
2022-12-18T23:34:49.817Z,12.40
2022-12-18T23:37:42.348Z,13.33
2022-12-18T23:40:11.365Z,12.30
2022-12-18T23:42:39.926Z,12.77
2022-12-18T23:45:17.635Z,12.70
2022-12-18T23:47:51.314Z,13.43
2022-12-18T23:50:24.056Z,12.50
2022-12-18T23:53:04.959Z,12.00
2022-12-18T23:55:39.906Z,12.40
2022-12-18T23:58:09.357Z,12.93
